Cottonwood, Minnesota
Current Conditions -  °F | °C
As of 10:33 PM on Tuesday 21 Oct 2014 (Local Time) from KGDB Reporting Station
Clear Clear  
Wind Chill: 53°   Ceiling: Unl
Heat Index: 53°   Visibility: 10mi
Dew Point: 40°   Wind: 12mph
Humidity: 61%   Direction: 120°ESE
Pressure: 30.06"   Gusts: 20mph
Location:  44.61°N, 95.67°W
Report Text: KGDB 220333Z AUTO 12010G17KT 10SM CLR 12/05 A3006 RMK AO2 T01180046
Loading
Personal Weather Stations






























Interactive Weather Map
Tropical Storm Tracking
New forecast layout! Learn more

10-Day Weather Forecast

Advertisements
Track Severe Weather on mobile